Time;durP1;ratioP1;P1;durP2;ratioP2;P2;SDS_P1;SDS_P2;PMS_P1;PMS_P2;Temp;Humidity;BMP_temperature;BMP_pressure;BME280_temperature;BME280_humidity;BME280_pressure;Samples;Min_cycle;Max_cycle;Signal;HPM_P1;HPM_P2
2023/05/22 00:00:53;;;;;;;12.80;11.70;;;;;;;;;;5045650;28;20273;-71
2023/05/22 00:03:23;;;;;;;12.77;11.57;;;;;;;;;;5043813;28;20195;-70
2023/05/22 00:05:52;;;;;;;11.82;10.82;;;;;;;;;;5047394;28;20208;-70
2023/05/22 00:08:19;;;;;;;12.75;11.50;;;;;;;;;;5046212;28;20245;-71
2023/05/22 00:10:46;;;;;;;12.57;11.38;;;;;;;;;;5046949;28;20214;-71
2023/05/22 00:13:13;;;;;;;12.50;11.30;;;;;;;;;;5044542;28;20219;-70
2023/05/22 00:15:41;;;;;;;12.10;11.05;;;;;;;;;;5045279;28;20272;-71
2023/05/22 00:18:08;;;;;;;12.95;11.75;;;;;;;;;;5044458;28;20294;-70
2023/05/22 00:20:37;;;;;;;12.38;11.18;;;;;;;;;;5037928;28;20231;-70
2023/05/22 00:23:08;;;;;;;13.77;12.48;;;;;;;;;;5046494;28;20249;-70
2023/05/22 00:25:36;;;;;;;14.27;12.88;;;;;;;;;;5042628;28;20215;-70
2023/05/22 00:28:03;;;;;;;14.75;13.45;;;;;;;;;;5048491;28;20214;-71
2023/05/22 00:30:30;;;;;;;13.88;12.65;;;;;;;;;;5044933;28;20234;-70
2023/05/22 00:32:58;;;;;;;14.05;12.82;;;;;;;;;;5045919;28;20208;-70
2023/05/22 00:35:26;;;;;;;13.77;12.48;;;;;;;;;;5041776;28;20208;-70
2023/05/22 00:37:53;;;;;;;14.02;12.73;;;;;;;;;;5044368;28;20207;-70
2023/05/22 00:40:20;;;;;;;13.40;12.20;;;;;;;;;;5046034;28;20207;-70
2023/05/22 00:42:47;;;;;;;13.77;12.48;;;;;;;;;;5041509;28;20208;-70
2023/05/22 00:45:15;;;;;;;13.57;12.38;;;;;;;;;;5044192;28;20234;-70
2023/05/22 00:47:42;;;;;;;13.80;12.60;;;;;;;;;;5042476;28;20204;-70
2023/05/22 00:50:12;;;;;;;16.10;14.43;;;;;;;;;;5044054;28;20219;-70
2023/05/22 00:52:40;;;;;;;15.55;14.15;;;;;;;;;;5043317;28;20242;-70
2023/05/22 00:55:08;;;;;;;14.15;12.93;;;;;;;;;;5043757;28;20207;-70
2023/05/22 00:57:37;;;;;;;14.50;13.10;;;;;;;;;;5043529;28;20207;-70
2023/05/22 01:00:10;;;;;;;14.48;13.10;;;;;;;;;;5044384;28;20207;-70
2023/05/22 01:02:38;;;;;;;14.20;12.90;;;;;;;;;;5047061;28;20218;-71
2023/05/22 01:05:06;;;;;;;14.13;12.93;;;;;;;;;;5041619;28;20199;-71
2023/05/22 01:07:36;;;;;;;13.60;12.40;;;;;;;;;;5043652;28;20204;-70
2023/05/22 01:10:04;;;;;;;14.88;13.45;;;;;;;;;;5040760;28;20199;-70
2023/05/22 01:12:33;;;;;;;15.05;13.55;;;;;;;;;;5040915;28;20223;-70
2023/05/22 01:15:04;;;;;;;13.75;12.35;;;;;;;;;;5043522;28;20206;-71
2023/05/22 01:17:33;;;;;;;13.88;12.68;;;;;;;;;;5039186;28;20216;-70
2023/05/22 01:20:08;;;;;;;15.60;14.20;;;;;;;;;;5044461;28;20269;-70
2023/05/22 01:22:48;;;;;;;12.88;11.77;;;;;;;;;;5041923;28;20265;-70
2023/05/22 01:25:25;;;;;;;13.27;12.18;;;;;;;;;;5039376;28;20290;-70
2023/05/22 01:28:02;;;;;;;14.27;12.93;;;;;;;;;;5045545;28;20253;-70
2023/05/22 01:30:48;;;;;;;13.80;12.50;;;;;;;;;;5043107;28;20214;-70
2023/05/22 01:33:16;;;;;;;12.90;11.80;;;;;;;;;;5047594;28;20219;-71
2023/05/22 01:35:45;;;;;;;14.70;13.18;;;;;;;;;;5044569;28;20200;-71
2023/05/22 01:38:13;;;;;;;14.68;13.25;;;;;;;;;;5044833;28;20291;-71
2023/05/22 01:40:41;;;;;;;15.55;14.00;;;;;;;;;;5048117;28;20199;-70
2023/05/22 01:43:08;;;;;;;14.27;12.98;;;;;;;;;;5047766;28;20307;-70
2023/05/22 01:45:35;;;;;;;14.23;13.02;;;;;;;;;;5044242;28;20253;-70
2023/05/22 01:48:04;;;;;;;13.55;12.35;;;;;;;;;;5049838;28;20200;-70
2023/05/22 01:50:31;;;;;;;14.77;13.25;;;;;;;;;;5048476;28;20206;-70
2023/05/22 01:53:04;;;;;;;14.27;12.98;;;;;;;;;;5048205;28;20226;-70
2023/05/22 01:55:34;;;;;;;14.48;13.10;;;;;;;;;;5041773;28;20211;-70
2023/05/22 01:58:08;;;;;;;13.73;12.48;;;;;;;;;;5041176;28;20253;-70
2023/05/22 02:00:36;;;;;;;14.77;13.48;;;;;;;;;;5042729;28;20203;-70
2023/05/22 02:03:07;;;;;;;15.10;13.70;;;;;;;;;;5041552;28;20196;-70
2023/05/22 02:05:35;;;;;;;14.52;13.05;;;;;;;;;;5043801;28;20215;-70
2023/05/22 02:08:02;;;;;;;14.27;12.98;;;;;;;;;;5046453;28;20203;-70
2023/05/22 02:10:30;;;;;;;15.13;13.73;;;;;;;;;;5044157;28;20211;-70
2023/05/22 02:12:57;;;;;;;15.77;14.30;;;;;;;;;;5039051;28;20219;-70
2023/05/22 02:15:24;;;;;;;14.48;13.18;;;;;;;;;;5040641;28;20207;-70
2023/05/22 02:17:52;;;;;;;14.13;12.82;;;;;;;;;;5039385;28;20208;-70
2023/05/22 02:20:20;;;;;;;13.57;12.27;;;;;;;;;;5042594;28;20239;-70
2023/05/22 02:22:48;;;;;;;15.13;13.52;;;;;;;;;;5045791;28;20203;-70
2023/05/22 02:25:16;;;;;;;14.20;12.80;;;;;;;;;;5041354;28;20210;-72
2023/05/22 02:27:43;;;;;;;15.63;14.13;;;;;;;;;;5042509;28;20245;-71
2023/05/22 02:30:10;;;;;;;14.75;13.35;;;;;;;;;;5048510;28;20208;-70
2023/05/22 02:32:39;;;;;;;15.82;14.25;;;;;;;;;;5051600;28;20204;-71
2023/05/22 02:35:06;;;;;;;14.38;13.07;;;;;;;;;;5048805;28;20294;-71
2023/05/22 02:37:35;;;;;;;14.35;12.85;;;;;;;;;;5049043;28;20211;-71
2023/05/22 02:40:04;;;;;;;14.20;12.90;;;;;;;;;;5044607;28;20236;-71
2023/05/22 02:42:32;;;;;;;14.68;13.30;;;;;;;;;;5051385;28;20208;-70
2023/05/22 02:44:59;;;;;;;16.42;14.70;;;;;;;;;;5050552;28;20299;-70
2023/05/22 02:47:26;;;;;;;14.88;13.48;;;;;;;;;;5050294;28;20208;-71
2023/05/22 02:49:53;;;;;;;13.85;12.65;;;;;;;;;;5048700;28;20206;-70
2023/05/22 02:52:21;;;;;;;15.25;13.93;;;;;;;;;;5050250;28;20226;-70
2023/05/22 02:54:49;;;;;;;15.75;14.35;;;;;;;;;;5051543;28;20212;-70
2023/05/22 02:57:16;;;;;;;14.65;13.40;;;;;;;;;;5048693;28;20204;-70
2023/05/22 02:59:44;;;;;;;15.23;13.88;;;;;;;;;;5051116;28;20211;-70
2023/05/22 03:02:12;;;;;;;15.23;13.82;;;;;;;;;;5047025;28;20213;-70
2023/05/22 03:04:40;;;;;;;14.63;13.13;;;;;;;;;;5044154;28;20200;-71
2023/05/22 03:07:07;;;;;;;15.50;13.98;;;;;;;;;;5049498;28;20235;-72
2023/05/22 03:09:35;;;;;;;14.05;12.75;;;;;;;;;;5046596;28;20204;-71
2023/05/22 03:12:03;;;;;;;14.82;13.40;;;;;;;;;;5048490;28;20208;-70
2023/05/22 03:14:30;;;;;;;16.35;14.75;;;;;;;;;;5045666;28;20223;-71
2023/05/22 03:16:58;;;;;;;15.90;14.43;;;;;;;;;;5047525;28;20192;-70
2023/05/22 03:19:25;;;;;;;15.57;14.18;;;;;;;;;;5049424;28;20243;-70
2023/05/22 03:21:52;;;;;;;15.40;13.93;;;;;;;;;;5049667;28;20218;-71
2023/05/22 03:24:19;;;;;;;16.85;15.05;;;;;;;;;;5046711;28;20204;-71
2023/05/22 03:26:46;;;;;;;16.88;15.32;;;;;;;;;;5047728;28;20202;-70
2023/05/22 03:29:15;;;;;;;15.38;13.98;;;;;;;;;;5050180;28;20204;-70
2023/05/22 03:31:42;;;;;;;16.35;14.85;;;;;;;;;;5045032;28;20218;-70
2023/05/22 03:34:09;;;;;;;17.50;15.80;;;;;;;;;;5048989;28;20226;-70
2023/05/22 03:36:36;;;;;;;17.23;15.60;;;;;;;;;;5050254;28;20223;-70
2023/05/22 03:39:04;;;;;;;16.65;14.93;;;;;;;;;;5049453;28;20294;-70
2023/05/22 03:41:31;;;;;;;17.15;15.55;;;;;;;;;;5048065;28;20210;-71
2023/05/22 03:43:58;;;;;;;17.98;16.38;;;;;;;;;;5048378;28;20207;-71
2023/05/22 03:46:26;;;;;;;17.17;15.57;;;;;;;;;;5045818;28;20207;-71
2023/05/22 03:48:54;;;;;;;15.25;13.85;;;;;;;;;;5048776;28;20206;-70
2023/05/22 03:51:21;;;;;;;15.27;13.88;;;;;;;;;;5047142;28;20210;-71
2023/05/22 03:53:48;;;;;;;14.93;13.50;;;;;;;;;;5046965;28;20223;-70
2023/05/22 03:56:15;;;;;;;17.15;15.65;;;;;;;;;;5049216;28;20215;-70
2023/05/22 03:58:42;;;;;;;18.48;16.67;;;;;;;;;;5046981;28;20211;-71
2023/05/22 04:01:10;;;;;;;17.60;15.90;;;;;;;;;;5045658;28;20211;-70
2023/05/22 04:03:38;;;;;;;16.13;14.60;;;;;;;;;;5047595;28;20199;-72
2023/05/22 04:06:06;;;;;;;16.15;14.65;;;;;;;;;;5043817;28;20203;-70
2023/05/22 04:08:33;;;;;;;16.67;15.18;;;;;;;;;;5049546;28;20222;-71
2023/05/22 04:11:01;;;;;;;16.30;14.70;;;;;;;;;;5049133;28;20293;-71
2023/05/22 04:13:30;;;;;;;17.00;15.50;;;;;;;;;;5047613;28;20224;-71
2023/05/22 04:15:57;;;;;;;16.25;14.80;;;;;;;;;;5045906;28;20264;-71
2023/05/22 04:18:25;;;;;;;17.65;15.82;;;;;;;;;;5045669;28;20210;-71
2023/05/22 04:20:53;;;;;;;14.48;13.13;;;;;;;;;;5044766;28;20246;-71
2023/05/22 04:23:21;;;;;;;15.27;13.88;;;;;;;;;;5048397;28;20227;-71
2023/05/22 04:25:48;;;;;;;14.27;12.90;;;;;;;;;;5049284;28;20238;-71
2023/05/22 04:28:17;;;;;;;15.63;14.13;;;;;;;;;;5043869;28;20214;-70
2023/05/22 04:30:44;;;;;;;14.65;13.35;;;;;;;;;;5047870;28;20253;-71
2023/05/22 04:33:12;;;;;;;18.92;17.13;;;;;;;;;;5046202;28;20196;-71
2023/05/22 04:35:39;;;;;;;17.75;16.15;;;;;;;;;;5049059;28;20215;-71
2023/05/22 04:38:08;;;;;;;17.58;15.90;;;;;;;;;;5048323;28;20203;-70
2023/05/22 04:40:36;;;;;;;17.50;15.90;;;;;;;;;;5045023;28;20204;-70
2023/05/22 04:43:03;;;;;;;20.60;18.45;;;;;;;;;;5045407;28;20229;-70
2023/05/22 04:45:31;;;;;;;18.45;16.65;;;;;;;;;;5049534;28;20211;-70
2023/05/22 04:48:01;;;;;;;17.55;15.75;;;;;;;;;;5050171;28;20253;-70
2023/05/22 04:50:31;;;;;;;18.08;16.33;;;;;;;;;;5049145;28;20195;-70
2023/05/22 04:52:59;;;;;;;17.75;16.05;;;;;;;;;;5047177;28;20202;-70
2023/05/22 04:55:28;;;;;;;18.27;16.58;;;;;;;;;;5048606;28;20264;-70
2023/05/22 04:57:56;;;;;;;18.60;16.80;;;;;;;;;;5047576;28;20199;-70
2023/05/22 05:00:25;;;;;;;17.17;15.52;;;;;;;;;;5045186;28;20207;-70
2023/05/22 05:02:53;;;;;;;18.45;16.75;;;;;;;;;;5046948;28;20195;-70
2023/05/22 05:05:20;;;;;;;18.33;16.73;;;;;;;;;;5050850;28;20211;-70
2023/05/22 05:07:49;;;;;;;17.25;15.63;;;;;;;;;;5047348;28;20195;-70
2023/05/22 05:10:16;;;;;;;18.42;16.73;;;;;;;;;;5048234;28;20204;-70
2023/05/22 05:12:44;;;;;;;17.52;15.77;;;;;;;;;;5047189;28;20203;-70
2023/05/22 05:15:12;;;;;;;17.85;16.05;;;;;;;;;;5043577;28;20226;-70
2023/05/22 05:17:39;;;;;;;19.27;17.40;;;;;;;;;;5048059;28;20199;-70
2023/05/22 05:20:07;;;;;;;18.48;16.65;;;;;;;;;;5049141;28;20235;-70
2023/05/22 05:22:36;;;;;;;17.38;15.77;;;;;;;;;;5047617;28;20214;-70
2023/05/22 05:25:04;;;;;;;17.98;16.27;;;;;;;;;;5045714;28;20196;-70
2023/05/22 05:27:31;;;;;;;18.60;16.90;;;;;;;;;;5043330;28;20215;-70
2023/05/22 05:30:00;;;;;;;16.77;15.23;;;;;;;;;;5046061;28;20203;-70
2023/05/22 05:32:27;;;;;;;17.10;15.60;;;;;;;;;;5047612;28;20223;-70
2023/05/22 05:34:55;;;;;;;17.80;16.10;;;;;;;;;;5045723;28;20223;-70
2023/05/22 05:37:22;;;;;;;18.95;17.05;;;;;;;;;;5044536;28;20199;-70
2023/05/22 05:39:49;;;;;;;20.02;17.92;;;;;;;;;;5040821;28;20210;-70
2023/05/22 05:42:17;;;;;;;19.80;17.80;;;;;;;;;;5047763;28;20218;-70
2023/05/22 05:44:44;;;;;;;20.10;18.17;;;;;;;;;;5049821;28;20207;-70
2023/05/22 05:47:12;;;;;;;20.77;18.77;;;;;;;;;;5050341;28;20203;-70
2023/05/22 05:49:40;;;;;;;18.08;16.48;;;;;;;;;;5047799;28;20203;-70
2023/05/22 05:52:07;;;;;;;20.40;18.33;;;;;;;;;;5049247;28;20208;-70
2023/05/22 05:54:34;;;;;;;20.10;18.20;;;;;;;;;;5046627;28;20305;-70
2023/05/22 05:57:01;;;;;;;19.35;17.58;;;;;;;;;;5048790;28;20203;-70
2023/05/22 05:59:30;;;;;;;21.10;19.17;;;;;;;;;;5050076;28;20207;-70
2023/05/22 06:01:57;;;;;;;19.65;17.65;;;;;;;;;;5051781;28;20268;-70
2023/05/22 06:04:26;;;;;;;20.67;18.77;;;;;;;;;;5051995;28;20203;-70
2023/05/22 06:06:54;;;;;;;19.17;17.33;;;;;;;;;;5051754;28;20207;-70
2023/05/22 06:09:21;;;;;;;19.25;17.35;;;;;;;;;;5053928;28;20218;-70
2023/05/22 06:11:48;;;;;;;19.17;17.27;;;;;;;;;;5049707;28;20200;-69
2023/05/22 06:14:15;;;;;;;18.60;16.90;;;;;;;;;;5053096;28;20329;-69
2023/05/22 06:16:42;;;;;;;18.17;16.58;;;;;;;;;;5052496;28;20204;-70
2023/05/22 06:19:09;;;;;;;21.75;19.48;;;;;;;;;;5045687;28;20226;-69
2023/05/22 06:21:37;;;;;;;22.63;20.33;;;;;;;;;;5050736;28;20206;-70
2023/05/22 06:24:05;;;;;;;23.63;21.40;;;;;;;;;;5050012;28;20203;-69
2023/05/22 06:26:33;;;;;;;23.58;21.50;;;;;;;;;;5048203;28;20214;-69
2023/05/22 06:29:00;;;;;;;23.98;21.58;;;;;;;;;;5051370;28;20211;-70
2023/05/22 06:31:27;;;;;;;23.90;21.60;;;;;;;;;;5051729;28;20199;-70
2023/05/22 06:33:54;;;;;;;24.40;21.95;;;;;;;;;;5053814;28;20216;-70
2023/05/22 06:36:22;;;;;;;24.23;22.02;;;;;;;;;;5053596;28;20215;-71
2023/05/22 06:38:50;;;;;;;25.42;22.83;;;;;;;;;;5051398;28;20210;-70
2023/05/22 06:41:17;;;;;;;24.50;22.20;;;;;;;;;;5052742;28;20266;-70
2023/05/22 06:43:44;;;;;;;22.85;20.65;;;;;;;;;;5053508;28;20210;-70
2023/05/22 06:46:12;;;;;;;21.25;19.25;;;;;;;;;;5054324;28;20208;-70
2023/05/22 06:48:39;;;;;;;24.92;22.63;;;;;;;;;;5053365;28;20208;-70
2023/05/22 06:51:08;;;;;;;24.30;22.00;;;;;;;;;;5053190;28;20211;-70
2023/05/22 06:53:35;;;;;;;24.38;21.92;;;;;;;;;;5052422;28;20204;-71
2023/05/22 06:56:04;;;;;;;25.45;22.92;;;;;;;;;;5052155;28;20227;-70
2023/05/22 06:58:31;;;;;;;24.05;21.67;;;;;;;;;;5050820;28;20203;-70
2023/05/22 07:00:58;;;;;;;25.08;22.60;;;;;;;;;;5050958;28;20211;-70
2023/05/22 07:03:26;;;;;;;22.48;20.38;;;;;;;;;;5052647;28;20257;-70
2023/05/22 07:05:53;;;;;;;24.98;22.58;;;;;;;;;;5053410;28;20253;-70
2023/05/22 07:08:21;;;;;;;24.98;22.55;;;;;;;;;;5049715;28;20203;-70
2023/05/22 07:10:48;;;;;;;24.90;22.58;;;;;;;;;;5050950;28;20286;-70
2023/05/22 07:13:16;;;;;;;25.02;22.42;;;;;;;;;;5052022;28;20207;-69
2023/05/22 07:15:45;;;;;;;25.15;22.52;;;;;;;;;;5049269;28;20216;-69
2023/05/22 07:18:12;;;;;;;25.45;22.73;;;;;;;;;;5050429;28;20282;-69
2023/05/22 07:20:39;;;;;;;24.05;21.65;;;;;;;;;;5050179;28;20223;-69
2023/05/22 07:23:07;;;;;;;24.35;21.95;;;;;;;;;;5051643;28;20326;-70
2023/05/22 07:25:34;;;;;;;25.27;22.75;;;;;;;;;;5052551;28;20195;-69
2023/05/22 07:28:07;;;;;;;23.45;21.30;;;;;;;;;;5052771;28;20226;-69
2023/05/22 07:30:36;;;;;;;24.40;21.85;;;;;;;;;;5051560;28;20207;-69
2023/05/22 07:33:03;;;;;;;24.10;21.80;;;;;;;;;;5053078;28;20234;-69
2023/05/22 07:35:30;;;;;;;25.10;22.70;;;;;;;;;;5051892;28;20234;-69
2023/05/22 07:37:57;;;;;;;21.42;19.33;;;;;;;;;;5051288;28;20210;-69
2023/05/22 07:40:24;;;;;;;22.70;20.50;;;;;;;;;;5051622;28;20211;-69
2023/05/22 07:42:51;;;;;;;25.10;21.90;;;;;;;;;;5052291;28;20215;-69
2023/05/22 07:45:19;;;;;;;21.83;19.77;;;;;;;;;;5052207;28;20226;-69
2023/05/22 07:47:47;;;;;;;24.75;22.33;;;;;;;;;;5050154;28;20199;-69
2023/05/22 07:50:14;;;;;;;24.23;21.95;;;;;;;;;;5051838;28;20214;-68
2023/05/22 07:52:42;;;;;;;23.10;20.83;;;;;;;;;;5050443;28;20211;-69
2023/05/22 07:55:09;;;;;;;21.73;19.55;;;;;;;;;;5051537;28;20219;-69
2023/05/22 07:57:37;;;;;;;23.30;21.05;;;;;;;;;;5051720;28;20211;-69
2023/05/22 08:00:12;;;;;;;22.27;20.17;;;;;;;;;;5052191;28;20350;-68
2023/05/22 08:02:39;;;;;;;22.58;20.48;;;;;;;;;;5051650;28;20210;-68
2023/05/22 08:05:09;;;;;;;21.58;19.45;;;;;;;;;;5052001;28;20215;-68
2023/05/22 08:07:36;;;;;;;23.50;21.20;;;;;;;;;;5049548;28;20203;-68
2023/05/22 08:10:05;;;;;;;23.05;20.88;;;;;;;;;;5050279;28;20211;-68
2023/05/22 08:12:32;;;;;;;22.05;20.05;;;;;;;;;;5051536;28;20215;-68
2023/05/22 08:14:59;;;;;;;21.40;19.30;;;;;;;;;;5049983;28;20234;-68
2023/05/22 08:17:26;;;;;;;22.05;20.08;;;;;;;;;;5051235;28;20215;-68
2023/05/22 08:19:53;;;;;;;20.52;18.38;;;;;;;;;;5051140;28;20243;-68
2023/05/22 08:22:22;;;;;;;21.25;19.23;;;;;;;;;;5051988;28;20200;-68
2023/05/22 08:24:49;;;;;;;21.40;19.55;;;;;;;;;;5050282;28;20207;-68
2023/05/22 08:27:16;;;;;;;21.25;19.10;;;;;;;;;;5047135;28;20195;-68
2023/05/22 08:29:43;;;;;;;19.98;17.98;;;;;;;;;;5050143;28;20203;-68
2023/05/22 08:32:10;;;;;;;19.73;17.85;;;;;;;;;;5050769;28;20204;-68
2023/05/22 08:34:39;;;;;;;22.13;20.05;;;;;;;;;;5049151;28;20231;-68
2023/05/22 08:37:08;;;;;;;21.90;19.90;;;;;;;;;;5049364;28;20212;-68
2023/05/22 08:39:36;;;;;;;23.13;20.90;;;;;;;;;;5050918;28;20207;-68
2023/05/22 08:42:03;;;;;;;19.85;18.13;;;;;;;;;;5047530;28;20211;-68
2023/05/22 08:44:31;;;;;;;21.38;19.33;;;;;;;;;;5048377;28;20214;-68
2023/05/22 08:46:59;;;;;;;24.30;22.05;;;;;;;;;;5049368;28;20207;-68
2023/05/22 08:49:26;;;;;;;21.98;19.77;;;;;;;;;;5046804;28;20234;-69
2023/05/22 08:51:55;;;;;;;23.75;21.27;;;;;;;;;;5046907;28;20214;-68
2023/05/22 08:54:22;;;;;;;21.90;19.88;;;;;;;;;;5045223;28;20199;-68
2023/05/22 08:56:51;;;;;;;24.13;21.83;;;;;;;;;;5048885;28;20234;-68
2023/05/22 08:59:19;;;;;;;21.42;19.55;;;;;;;;;;5050246;28;20207;-68
2023/05/22 09:01:47;;;;;;;23.80;21.58;;;;;;;;;;5046738;28;20202;-68
2023/05/22 09:04:14;;;;;;;23.33;21.05;;;;;;;;;;5049504;28;20203;-68
2023/05/22 09:06:41;;;;;;;21.88;19.85;;;;;;;;;;5050547;28;20206;-68
2023/05/22 09:09:09;;;;;;;23.33;21.02;;;;;;;;;;5043595;28;20218;-68
2023/05/22 09:11:36;;;;;;;21.45;19.38;;;;;;;;;;5044760;28;20195;-69
2023/05/22 09:14:11;;;;;;;21.63;19.73;;;;;;;;;;5042807;28;20214;-68
2023/05/22 09:16:47;;;;;;;18.95;17.10;;;;;;;;;;5048642;28;20229;-68
2023/05/22 09:19:15;;;;;;;19.30;17.40;;;;;;;;;;5049832;28;20207;-68
2023/05/22 09:21:43;;;;;;;18.42;16.67;;;;;;;;;;5050270;28;20207;-68
2023/05/22 09:24:10;;;;;;;21.20;19.05;;;;;;;;;;5049971;28;20207;-68
2023/05/22 09:26:38;;;;;;;24.40;22.00;;;;;;;;;;5049836;28;20204;-68
2023/05/22 09:29:06;;;;;;;22.50;20.38;;;;;;;;;;5045570;28;20206;-68
2023/05/22 09:31:38;;;;;;;21.65;19.70;;;;;;;;;;5045897;28;20214;-68
2023/05/22 09:34:06;;;;;;;21.98;19.88;;;;;;;;;;5045502;28;20207;-68
2023/05/22 09:36:34;;;;;;;20.35;18.55;;;;;;;;;;5049199;28;20219;-68
2023/05/22 09:39:01;;;;;;;18.25;16.55;;;;;;;;;;5050219;28;20211;-68
2023/05/22 09:41:29;;;;;;;19.52;17.83;;;;;;;;;;5052288;28;20302;-68
2023/05/22 09:43:56;;;;;;;19.98;18.17;;;;;;;;;;5051498;28;20215;-68
2023/05/22 09:46:23;;;;;;;18.10;16.50;;;;;;;;;;5051699;28;20200;-68
2023/05/22 09:48:55;;;;;;;19.70;17.80;;;;;;;;;;5053206;28;20215;-67
2023/05/22 09:51:23;;;;;;;19.35;17.65;;;;;;;;;;5053451;28;20213;-68
2023/05/22 09:53:51;;;;;;;17.98;16.35;;;;;;;;;;5052715;28;20225;-67
2023/05/22 09:56:22;;;;;;;16.98;15.30;;;;;;;;;;5050033;28;20330;-67
2023/05/22 09:58:51;;;;;;;15.23;13.93;;;;;;;;;;5052130;28;20207;-68
2023/05/22 10:01:19;;;;;;;16.98;15.27;;;;;;;;;;5052573;28;20203;-68
2023/05/22 10:03:48;;;;;;;18.08;16.33;;;;;;;;;;5052334;28;20244;-68
2023/05/22 10:06:17;;;;;;;15.70;14.30;;;;;;;;;;5050484;28;20200;-67
2023/05/22 10:08:44;;;;;;;16.20;14.88;;;;;;;;;;5053310;28;20211;-68
2023/05/22 10:11:12;;;;;;;13.77;12.68;;;;;;;;;;5052782;28;20200;-68
2023/05/22 10:13:40;;;;;;;13.70;12.60;;;;;;;;;;5049734;28;20203;-68
2023/05/22 10:16:07;;;;;;;14.48;13.20;;;;;;;;;;5050449;28;20231;-68
2023/05/22 10:18:35;;;;;;;15.07;13.77;;;;;;;;;;5052065;28;20215;-68
2023/05/22 10:21:02;;;;;;;15.05;13.63;;;;;;;;;;5050328;28;20236;-67
2023/05/22 10:23:31;;;;;;;12.52;11.52;;;;;;;;;;5053609;28;20211;-68
2023/05/22 10:25:58;;;;;;;18.35;16.75;;;;;;;;;;5052421;28;20290;-68
2023/05/22 10:28:28;;;;;;;17.85;16.35;;;;;;;;;;5053371;28;20208;-68
2023/05/22 10:30:59;;;;;;;17.45;15.85;;;;;;;;;;5052049;28;20223;-68
2023/05/22 10:33:29;;;;;;;18.88;17.17;;;;;;;;;;5052755;28;20211;-68
2023/05/22 10:35:57;;;;;;;18.23;16.70;;;;;;;;;;5049929;28;20223;-68
2023/05/22 10:38:39;;;;;;;20.35;18.38;;;;;;;;;;5052760;28;20207;-67
2023/05/22 10:41:07;;;;;;;18.08;16.38;;;;;;;;;;5051807;28;20206;-68
2023/05/22 10:43:39;;;;;;;20.90;18.85;;;;;;;;;;5053317;28;20219;-67
2023/05/22 10:46:08;;;;;;;19.20;17.52;;;;;;;;;;5052790;28;20253;-67
2023/05/22 10:48:38;;;;;;;18.92;17.23;;;;;;;;;;5049017;28;20216;-67
2023/05/22 10:51:05;;;;;;;19.25;17.35;;;;;;;;;;5046254;28;20204;-67
2023/05/22 10:53:33;;;;;;;17.27;15.65;;;;;;;;;;5050543;28;20207;-67
2023/05/22 10:56:10;;;;;;;15.52;13.85;;;;;;;;;;5051099;28;20226;-67
2023/05/22 10:58:37;;;;;;;16.58;15.18;;;;;;;;;;5049380;28;20207;-67
2023/05/22 11:01:14;;;;;;;17.42;15.88;;;;;;;;;;5049658;28;20267;-67
2023/05/22 11:03:55;;;;;;;16.55;15.13;;;;;;;;;;5050410;28;20199;-68
2023/05/22 11:06:35;;;;;;;18.00;16.50;;;;;;;;;;5049296;28;20196;-67
2023/05/22 11:09:17;;;;;;;16.58;15.10;;;;;;;;;;5050796;28;20207;-68
2023/05/22 11:11:46;;;;;;;15.85;14.45;;;;;;;;;;5047872;28;20274;-68
2023/05/22 11:14:13;;;;;;;16.35;14.85;;;;;;;;;;5049999;28;20208;-67
2023/05/22 11:16:40;;;;;;;14.75;13.40;;;;;;;;;;5051126;28;20223;-67
2023/05/22 11:19:08;;;;;;;16.63;15.20;;;;;;;;;;5048662;28;20211;-67
2023/05/22 11:21:36;;;;;;;14.15;12.95;;;;;;;;;;5051421;28;20219;-67
2023/05/22 11:24:04;;;;;;;12.45;11.32;;;;;;;;;;5050853;28;20230;-67
2023/05/22 11:26:31;;;;;;;13.52;12.43;;;;;;;;;;5048217;28;20210;-67
2023/05/22 11:29:00;;;;;;;14.70;13.40;;;;;;;;;;5050008;28;20210;-67
2023/05/22 11:31:27;;;;;;;14.40;13.07;;;;;;;;;;5051292;28;20208;-67
2023/05/22 11:33:54;;;;;;;14.40;13.18;;;;;;;;;;5052658;28;20207;-67
2023/05/22 11:36:22;;;;;;;14.10;13.00;;;;;;;;;;5051453;28;20227;-67
2023/05/22 11:38:49;;;;;;;13.77;12.57;;;;;;;;;;5051632;28;20215;-67
2023/05/22 11:41:16;;;;;;;14.02;12.73;;;;;;;;;;5047100;28;20382;-67
2023/05/22 11:43:43;;;;;;;13.60;12.50;;;;;;;;;;5049633;28;20230;-67
2023/05/22 11:46:12;;;;;;;14.45;13.35;;;;;;;;;;5050207;28;20215;-67
2023/05/22 11:48:43;;;;;;;12.70;11.60;;;;;;;;;;5052123;28;20210;-67
2023/05/22 11:51:10;;;;;;;13.07;11.80;;;;;;;;;;5049779;28;20192;-68
2023/05/22 11:53:37;;;;;;;14.55;13.20;;;;;;;;;;5049432;28;20208;-67
2023/05/22 11:56:05;;;;;;;11.88;10.95;;;;;;;;;;5050185;28;20239;-67
2023/05/22 11:58:32;;;;;;;13.07;11.85;;;;;;;;;;5050245;28;20217;-67
2023/05/22 12:01:00;;;;;;;12.45;11.35;;;;;;;;;;5046770;28;20199;-67
2023/05/22 12:03:29;;;;;;;12.07;10.90;;;;;;;;;;5049284;28;20199;-67
2023/05/22 12:05:56;;;;;;;13.07;12.02;;;;;;;;;;5049499;28;20204;-67
2023/05/22 12:08:23;;;;;;;12.50;11.48;;;;;;;;;;5050047;28;20203;-67
2023/05/22 12:10:51;;;;;;;12.35;11.32;;;;;;;;;;5048235;28;20205;-67
2023/05/22 12:13:25;;;;;;;10.85;9.77;;;;;;;;;;5051038;28;20207;-67
2023/05/22 12:15:53;;;;;;;11.68;10.55;;;;;;;;;;5049010;28;20220;-67
2023/05/22 12:18:20;;;;;;;11.77;10.68;;;;;;;;;;5047678;28;20199;-67
2023/05/22 12:20:53;;;;;;;10.82;9.93;;;;;;;;;;5050556;28;20242;-67
2023/05/22 12:23:26;;;;;;;11.73;10.73;;;;;;;;;;5049931;28;20211;-67
2023/05/22 12:25:57;;;;;;;10.98;10.18;;;;;;;;;;5048030;28;20211;-67
2023/05/22 12:28:24;;;;;;;11.18;10.27;;;;;;;;;;5045811;28;20195;-67
2023/05/22 12:30:53;;;;;;;11.23;10.32;;;;;;;;;;5047893;28;20196;-67
2023/05/22 12:33:20;;;;;;;12.82;11.70;;;;;;;;;;5047747;28;20210;-66
2023/05/22 12:35:51;;;;;;;11.50;10.50;;;;;;;;;;5042518;28;20204;-66
2023/05/22 12:38:21;;;;;;;11.82;10.85;;;;;;;;;;5051338;28;20200;-66
2023/05/22 12:40:48;;;;;;;12.10;10.00;;;;;;;;;;5043412;28;20211;-66
2023/05/22 12:43:15;;;;;;;11.50;10.32;;;;;;;;;;5051270;28;20207;-67
2023/05/22 12:45:42;;;;;;;10.13;9.25;;;;;;;;;;5046908;28;20210;-67
2023/05/22 12:48:10;;;;;;;10.90;9.82;;;;;;;;;;5050872;28;20211;-67
2023/05/22 12:50:37;;;;;;;10.75;9.75;;;;;;;;;;5050696;28;20214;-66
2023/05/22 12:53:06;;;;;;;10.73;9.82;;;;;;;;;;5046698;28;20215;-66
2023/05/22 12:55:33;;;;;;;10.57;9.57;;;;;;;;;;5048775;28;20208;-67
2023/05/22 12:58:00;;;;;;;10.10;9.27;;;;;;;;;;5049197;28;20231;-67
2023/05/22 13:00:27;;;;;;;8.73;7.75;;;;;;;;;;5048052;28;20195;-67
2023/05/22 13:02:54;;;;;;;8.75;8.05;;;;;;;;;;5048864;28;20203;-66
2023/05/22 13:05:22;;;;;;;8.13;7.43;;;;;;;;;;5047550;28;20313;-66
2023/05/22 13:07:49;;;;;;;7.70;7.18;;;;;;;;;;5050916;28;20210;-66
2023/05/22 13:10:17;;;;;;;8.27;7.43;;;;;;;;;;5044526;28;20215;-66
2023/05/22 13:12:46;;;;;;;7.13;6.53;;;;;;;;;;5046380;28;20274;-66
2023/05/22 13:15:14;;;;;;;6.50;6.00;;;;;;;;;;5049395;28;20200;-66
2023/05/22 13:17:41;;;;;;;5.80;5.32;;;;;;;;;;5050119;28;20211;-67
2023/05/22 13:20:09;;;;;;;6.30;5.32;;;;;;;;;;5048361;28;20300;-67
2023/05/22 13:22:36;;;;;;;5.35;4.85;;;;;;;;;;5043858;28;20210;-67
2023/05/22 13:25:03;;;;;;;5.07;4.60;;;;;;;;;;5047775;28;20211;-68
2023/05/22 13:27:32;;;;;;;4.75;4.43;;;;;;;;;;5048674;28;20201;-67
2023/05/22 13:29:59;;;;;;;5.03;4.60;;;;;;;;;;5050766;28;20218;-67
2023/05/22 13:32:26;;;;;;;5.20;4.80;;;;;;;;;;5048492;28;20203;-67
2023/05/22 13:34:53;;;;;;;5.03;4.63;;;;;;;;;;5048992;28;20233;-67
2023/05/22 13:37:20;;;;;;;5.38;4.95;;;;;;;;;;5049638;28;20223;-66
2023/05/22 13:39:47;;;;;;;5.13;4.72;;;;;;;;;;5049239;28;20207;-67
2023/05/22 13:42:14;;;;;;;5.60;5.07;;;;;;;;;;5047461;28;20210;-66
2023/05/22 13:44:43;;;;;;;5.30;4.80;;;;;;;;;;5047979;28;20208;-67
2023/05/22 13:47:10;;;;;;;6.03;5.50;;;;;;;;;;5049199;28;20199;-67
2023/05/22 13:49:37;;;;;;;5.88;5.28;;;;;;;;;;5048623;28;20218;-67
2023/05/22 13:52:04;;;;;;;7.13;5.60;;;;;;;;;;5045685;28;20207;-67
2023/05/22 13:54:31;;;;;;;6.38;5.78;;;;;;;;;;5044842;28;20231;-67
2023/05/22 13:57:01;;;;;;;6.38;5.70;;;;;;;;;;5048763;28;20219;-67
2023/05/22 13:59:28;;;;;;;7.10;6.40;;;;;;;;;;5046262;28;20290;-67
2023/05/22 14:01:56;;;;;;;7.03;6.43;;;;;;;;;;5048582;28;20214;-67
2023/05/22 14:04:24;;;;;;;7.55;6.75;;;;;;;;;;5046973;28;20307;-67
2023/05/22 14:06:51;;;;;;;7.70;7.00;;;;;;;;;;5050401;28;20211;-67
2023/05/22 14:09:18;;;;;;;6.85;6.18;;;;;;;;;;5048420;28;20223;-67
2023/05/22 14:11:45;;;;;;;6.63;6.13;;;;;;;;;;5046703;28;20210;-67
2023/05/22 14:14:12;;;;;;;6.82;6.18;;;;;;;;;;5045901;28;20207;-66
2023/05/22 14:16:39;;;;;;;6.50;5.90;;;;;;;;;;5043008;28;20216;-66
2023/05/22 14:19:08;;;;;;;5.75;5.25;;;;;;;;;;5043841;28;20246;-66
2023/05/22 14:21:35;;;;;;;6.15;5.68;;;;;;;;;;5050075;28;20239;-67
2023/05/22 14:24:03;;;;;;;5.20;4.80;;;;;;;;;;5045035;28;20195;-67
2023/05/22 14:26:30;;;;;;;6.72;5.20;;;;;;;;;;5050635;28;20207;-67